createdAt,value
2023-02-20T00:00:09.384Z,102625.00
2023-02-20T00:02:35.931Z,102617.91
2023-02-20T00:05:03.064Z,102614.34
2023-02-20T00:07:29.475Z,102616.06
2023-02-20T00:09:55.898Z,102610.72
2023-02-20T00:12:22.299Z,102609.84
2023-02-20T00:14:48.776Z,102612.50
2023-02-20T00:17:15.204Z,102624.16
2023-02-20T00:19:41.608Z,102619.72
2023-02-20T00:22:08.058Z,102622.41
2023-02-20T00:24:34.732Z,102601.84
2023-02-20T00:27:01.133Z,102585.75
2023-02-20T00:29:27.577Z,102591.97
2023-02-20T00:31:56.579Z,102591.03
2023-02-20T00:34:27.964Z,102582.16
2023-02-20T00:36:54.469Z,102583.81
2023-02-20T00:39:21.129Z,102575.69
2023-02-20T00:41:48.776Z,102574.84
2023-02-20T00:44:15.770Z,102567.72
2023-02-20T00:46:42.271Z,102572.25
2023-02-20T00:49:08.710Z,102570.47
2023-02-20T00:51:47.668Z,102553.66
2023-02-20T00:54:14.633Z,102553.59
2023-02-20T00:56:41.162Z,102554.53
2023-02-20T00:59:07.785Z,102547.44
2023-02-20T01:01:34.347Z,102539.50
2023-02-20T01:04:00.827Z,102537.75
2023-02-20T01:06:27.298Z,102535.09
2023-02-20T01:08:53.755Z,102532.50
2023-02-20T01:11:20.743Z,102517.38
2023-02-20T01:13:47.241Z,102511.16
2023-02-20T01:16:14.006Z,102492.41
2023-02-20T01:18:42.782Z,102484.44
2023-02-20T01:21:09.295Z,102482.66
2023-02-20T01:23:35.797Z,102486.22
2023-02-20T01:26:02.197Z,102487.16
2023-02-20T01:28:28.660Z,102484.53
2023-02-20T01:30:55.154Z,102489.06
2023-02-20T01:33:21.652Z,102488.94
2023-02-20T01:35:48.106Z,102479.22
2023-02-20T01:38:14.491Z,102488.19
2023-02-20T01:40:49.010Z,102479.28
2023-02-20T01:43:16.673Z,102477.66
2023-02-20T01:45:43.713Z,102482.16
2023-02-20T01:48:26.113Z,102480.41
2023-02-20T01:50:58.514Z,102475.94
2023-02-20T01:53:28.481Z,102475.19
2023-02-20T01:56:07.506Z,102472.38
2023-02-20T01:58:39.806Z,102472.13
2023-02-20T02:01:06.622Z,102477.38
2023-02-20T02:03:37.349Z,102477.22
2023-02-20T02:06:07.438Z,102465.56
2023-02-20T02:08:37.726Z,102465.53
2023-02-20T02:11:09.787Z,102458.25
2023-02-20T02:13:38.811Z,102449.06
2023-02-20T02:16:37.157Z,102434.66
2023-02-20T02:19:30.984Z,102448.84
2023-02-20T02:22:21.841Z,102440.66
2023-02-20T02:25:33.774Z,102434.25
2023-02-20T02:28:28.869Z,102431.47
2023-02-20T02:31:01.372Z,102424.44
2023-02-20T02:34:03.870Z,102431.53
2023-02-20T02:36:50.076Z,102425.19
2023-02-20T02:39:22.400Z,102420.53
2023-02-20T02:42:02.989Z,102409.72
2023-02-20T02:44:42.519Z,102414.91
2023-02-20T02:47:18.231Z,102411.25
2023-02-20T02:50:10.875Z,102409.22
2023-02-20T02:52:49.470Z,102405.50
2023-02-20T02:55:23.036Z,102401.88
2023-02-20T02:57:50.381Z,102405.28
2023-02-20T03:00:26.886Z,102408.75
2023-02-20T03:03:09.348Z,102402.44
2023-02-20T03:05:46.394Z,102402.31
2023-02-20T03:08:32.861Z,102400.38
2023-02-20T03:11:28.502Z,102396.72
2023-02-20T03:14:20.673Z,102399.34
2023-02-20T03:16:57.628Z,102404.53
2023-02-20T03:19:35.663Z,102405.31
2023-02-20T03:22:05.513Z,102396.28
2023-02-20T03:24:54.053Z,102395.38
2023-02-20T03:27:38.922Z,102388.03
2023-02-20T03:30:15.520Z,102387.91
2023-02-20T03:33:03.127Z,102383.41
2023-02-20T03:35:53.338Z,102394.13
2023-02-20T03:38:42.599Z,102375.25
2023-02-20T03:41:32.756Z,102388.53
2023-02-20T03:44:03.201Z,102381.38
2023-02-20T03:46:33.605Z,102376.75
2023-02-20T03:49:31.753Z,102380.31
2023-02-20T03:51:58.864Z,102383.84
2023-02-20T03:54:40.072Z,102375.78
2023-02-20T03:57:12.105Z,102369.50
2023-02-20T04:00:00.742Z,102365.81
2023-02-20T04:02:42.439Z,102362.22
2023-02-20T04:05:16.044Z,102366.53
2023-02-20T04:07:49.988Z,102361.94
2023-02-20T04:10:24.913Z,102352.22
2023-02-20T04:12:53.446Z,102357.53
2023-02-20T04:15:21.237Z,102361.91
2023-02-20T04:17:56.559Z,102365.47
2023-02-20T04:20:23.289Z,102360.03
2023-02-20T04:23:05.745Z,102358.25
2023-02-20T04:25:53.637Z,102373.28
2023-02-20T04:28:21.148Z,102352.66
2023-02-20T04:30:54.840Z,102359.69
2023-02-20T04:33:23.585Z,102365.06
2023-02-20T04:35:55.065Z,102356.94
2023-02-20T04:38:21.550Z,102354.25
2023-02-20T04:40:48.484Z,102340.91
2023-02-20T04:43:14.941Z,102349.84
2023-02-20T04:45:41.637Z,102345.28
2023-02-20T04:48:08.196Z,102346.09
2023-02-20T04:50:35.211Z,102355.88
2023-02-20T04:53:03.375Z,102357.56
2023-02-20T04:55:29.921Z,102360.19
2023-02-20T04:57:59.825Z,102346.72
2023-02-20T05:00:30.803Z,102349.44
2023-02-20T05:02:58.174Z,102348.59
2023-02-20T05:05:29.367Z,102345.91
2023-02-20T05:07:58.450Z,102351.22
2023-02-20T05:10:25.714Z,102350.28
2023-02-20T05:12:52.375Z,102353.91
2023-02-20T05:15:19.838Z,102344.91
2023-02-20T05:17:46.991Z,102347.59
2023-02-20T05:20:14.892Z,102345.69
2023-02-20T05:22:41.578Z,102347.38
2023-02-20T05:25:08.796Z,102332.16
2023-02-20T05:27:35.428Z,102345.56
2023-02-20T05:30:02.180Z,102328.56
2023-02-20T05:32:30.071Z,102334.78
2023-02-20T05:34:57.017Z,102340.16
2023-02-20T05:37:25.225Z,102348.13
2023-02-20T05:39:52.012Z,102349.03
2023-02-20T05:42:18.521Z,102341.81
2023-02-20T05:44:45.168Z,102339.94
2023-02-20T05:47:11.582Z,102334.53
2023-02-20T05:49:38.120Z,102341.50
2023-02-20T05:52:11.895Z,102332.50
2023-02-20T05:54:39.659Z,102332.31
2023-02-20T05:57:06.355Z,102329.63
2023-02-20T05:59:32.901Z,102336.00
2023-02-20T06:02:00.693Z,102329.69
2023-02-20T06:04:27.788Z,102324.25
2023-02-20T06:06:54.438Z,102329.56
2023-02-20T06:09:21.057Z,102332.13
2023-02-20T06:11:56.260Z,102332.13
2023-02-20T06:14:25.540Z,102332.06
2023-02-20T06:16:52.291Z,102332.06
2023-02-20T06:19:24.352Z,102332.84
2023-02-20T06:21:53.565Z,102326.69
2023-02-20T06:24:21.160Z,102333.84
2023-02-20T06:26:47.579Z,102333.78
2023-02-20T06:29:16.377Z,102345.41
2023-02-20T06:31:43.189Z,102339.09
2023-02-20T06:34:10.909Z,102334.50
2023-02-20T06:36:40.599Z,102325.69
2023-02-20T06:39:10.489Z,102327.38
2023-02-20T06:41:36.986Z,102332.75
2023-02-20T06:44:03.591Z,102341.66
2023-02-20T06:46:30.096Z,102329.06
2023-02-20T06:48:58.400Z,102329.91
2023-02-20T06:51:30.063Z,102327.16
2023-02-20T06:53:56.969Z,102327.09
2023-02-20T06:56:29.306Z,102325.28
2023-02-20T06:58:56.707Z,102331.63
2023-02-20T07:01:28.748Z,102331.69
2023-02-20T07:03:56.178Z,102322.66
2023-02-20T07:06:24.215Z,102332.47
2023-02-20T07:08:51.159Z,102332.34
2023-02-20T07:11:19.929Z,102335.84
2023-02-20T07:13:46.404Z,102341.16
2023-02-20T07:16:13.392Z,102343.84
2023-02-20T07:18:40.137Z,102345.50
2023-02-20T07:21:07.160Z,102340.94
2023-02-20T07:23:33.718Z,102342.63
2023-02-20T07:26:00.193Z,102347.06
2023-02-20T07:28:26.685Z,102338.97
2023-02-20T07:30:53.092Z,102352.34
2023-02-20T07:33:19.757Z,102343.25
2023-02-20T07:35:46.704Z,102356.69
2023-02-20T07:38:14.634Z,102349.47
2023-02-20T07:40:41.096Z,102343.91
2023-02-20T07:43:07.731Z,102347.41
2023-02-20T07:45:39.201Z,102346.44
2023-02-20T07:48:06.015Z,102358.03
2023-02-20T07:50:32.476Z,102349.91
2023-02-20T07:52:58.916Z,102352.53
2023-02-20T07:55:25.353Z,102358.69
2023-02-20T07:57:54.273Z,102346.06
2023-02-20T08:00:21.985Z,102338.69
2023-02-20T08:02:48.632Z,102336.78
2023-02-20T08:05:15.351Z,102330.41
2023-02-20T08:07:46.884Z,102317.69
2023-02-20T08:10:18.733Z,102333.75
2023-02-20T08:12:46.066Z,102332.59
2023-02-20T08:15:12.880Z,102327.09
2023-02-20T08:17:46.587Z,102326.03
2023-02-20T08:20:18.769Z,102335.69
2023-02-20T08:22:46.797Z,102337.34
2023-02-20T08:25:14.389Z,102333.56
2023-02-20T08:27:46.339Z,102333.22
2023-02-20T08:30:23.770Z,102333.97
2023-02-20T08:32:54.803Z,102332.19
2023-02-20T08:35:24.872Z,102342.13
2023-02-20T08:37:51.829Z,102330.03
2023-02-20T08:40:18.682Z,102324.44
2023-02-20T08:42:45.149Z,102332.38
2023-02-20T08:45:11.737Z,102328.69
2023-02-20T08:47:38.202Z,102336.44
2023-02-20T08:50:04.935Z,102335.69
2023-02-20T08:52:31.426Z,102333.97
2023-02-20T08:54:58.177Z,102334.00
2023-02-20T08:57:24.630Z,102338.44
2023-02-20T08:59:51.075Z,102344.81
2023-02-20T09:02:19.616Z,102333.22
2023-02-20T09:04:46.491Z,102336.88
2023-02-20T09:07:14.313Z,102339.63
2023-02-20T09:09:41.079Z,102326.38
2023-02-20T09:12:08.509Z,102337.97
2023-02-20T09:14:35.802Z,102335.28
2023-02-20T09:17:02.316Z,102336.31
2023-02-20T09:19:28.905Z,102334.59
2023-02-20T09:21:55.417Z,102342.78
2023-02-20T09:24:21.969Z,102338.38
2023-02-20T09:26:48.549Z,102332.19
2023-02-20T09:29:15.402Z,102337.56
2023-02-20T09:31:42.013Z,102324.03
2023-02-20T09:34:09.403Z,102323.13
2023-02-20T09:36:35.817Z,102325.75
2023-02-20T09:39:02.205Z,102331.88
2023-02-20T09:41:40.901Z,102330.75
2023-02-20T09:44:50.530Z,102324.88
2023-02-20T09:47:38.424Z,102322.03
2023-02-20T09:50:11.763Z,102320.09
2023-02-20T09:52:42.945Z,102326.16
2023-02-20T09:55:19.687Z,102311.94
2023-02-20T09:57:49.893Z,102323.75
2023-02-20T10:00:32.408Z,102316.44
2023-02-20T10:03:16.124Z,102304.41
2023-02-20T10:05:45.603Z,102316.81
2023-02-20T10:08:17.169Z,102314.88
2023-02-20T10:10:43.763Z,102330.13
2023-02-20T10:13:29.085Z,102322.06
2023-02-20T10:16:32.395Z,102321.84
2023-02-20T10:19:01.656Z,102305.53
2023-02-20T10:21:33.890Z,102322.34
2023-02-20T10:24:18.198Z,102325.03
2023-02-20T10:26:50.428Z,102329.25
2023-02-20T10:29:25.266Z,102315.09
2023-02-20T10:31:58.137Z,102329.25
2023-02-20T10:34:32.542Z,102314.81
2023-02-20T10:37:08.341Z,102299.84
2023-02-20T10:39:36.288Z,102312.44
2023-02-20T10:42:12.681Z,102333.19
2023-02-20T10:44:53.468Z,102326.78
2023-02-20T10:47:39.080Z,102297.56
2023-02-20T10:50:22.774Z,102303.56
2023-02-20T10:53:04.065Z,102309.94
2023-02-20T10:55:39.243Z,102311.06
2023-02-20T10:58:41.106Z,102296.75
2023-02-20T11:01:11.382Z,102311.88
2023-02-20T11:04:09.497Z,102311.88
2023-02-20T11:06:59.554Z,102312.84
2023-02-20T11:09:27.487Z,102313.72
2023-02-20T11:11:55.334Z,102309.28
2023-02-20T11:14:41.705Z,102316.69
2023-02-20T11:17:20.591Z,102298.56
2023-02-20T11:19:53.614Z,102280.41
2023-02-20T11:22:49.210Z,102255.94
2023-02-20T11:25:27.390Z,102274.78
2023-02-20T11:27:57.173Z,102309.06
2023-02-20T11:30:26.582Z,102286.00
2023-02-20T11:33:18.491Z,102267.06
2023-02-20T11:35:47.744Z,102262.28
2023-02-20T11:38:26.463Z,102277.38
2023-02-20T11:40:52.975Z,102280.84
2023-02-20T11:43:27.732Z,102281.94
2023-02-20T11:46:15.885Z,102291.53
2023-02-20T11:49:11.514Z,102262.06
2023-02-20T11:51:42.175Z,102256.75
2023-02-20T11:54:29.490Z,102269.22
2023-02-20T11:57:23.531Z,102302.31
2023-02-20T11:59:51.575Z,102312.38
2023-02-20T12:02:18.344Z,102312.50
2023-02-20T12:05:06.700Z,102297.56
2023-02-20T12:07:37.194Z,102306.56
2023-02-20T12:10:19.960Z,102309.06
2023-02-20T12:12:46.487Z,102313.38
2023-02-20T12:15:18.130Z,102297.28
2023-02-20T12:18:03.089Z,102298.16
2023-02-20T12:20:30.861Z,102297.22
2023-02-20T12:23:26.526Z,102284.56
2023-02-20T12:26:34.357Z,102295.19
2023-02-20T12:29:03.782Z,102281.50
2023-02-20T12:31:42.779Z,102275.19
2023-02-20T12:34:16.897Z,102275.13
2023-02-20T12:36:54.143Z,102269.66
2023-02-20T12:39:33.932Z,102284.78
2023-02-20T12:42:12.831Z,102282.81
2023-02-20T12:44:52.542Z,102285.53
2023-02-20T12:47:30.369Z,102271.22
2023-02-20T12:50:18.014Z,102254.00
2023-02-20T12:52:56.501Z,102245.63
2023-02-20T12:56:04.283Z,102238.00
2023-02-20T12:58:48.783Z,102254.09
2023-02-20T13:01:27.715Z,102245.06
2023-02-20T13:04:04.444Z,102254.75
2023-02-20T13:07:03.103Z,102248.22
2023-02-20T13:09:36.764Z,102254.81
2023-02-20T13:12:11.236Z,102255.75
2023-02-20T13:14:53.502Z,102256.69
2023-02-20T13:17:36.975Z,102256.25
2023-02-20T13:20:26.310Z,102251.25
2023-02-20T13:23:25.554Z,102245.78
2023-02-20T13:25:53.668Z,102238.66
2023-02-20T13:28:42.776Z,102226.41
2023-02-20T13:31:29.532Z,102221.03
2023-02-20T13:34:04.884Z,102225.84
2023-02-20T13:36:44.462Z,102221.31
2023-02-20T13:39:20.098Z,102213.09
2023-02-20T13:41:55.617Z,102212.56
2023-02-20T13:44:28.114Z,102210.91
2023-02-20T13:46:59.322Z,102212.72
2023-02-20T13:49:50.368Z,102219.63
2023-02-20T13:52:38.433Z,102214.16
2023-02-20T13:55:11.032Z,102219.72
2023-02-20T13:57:49.816Z,102217.94
2023-02-20T14:00:40.931Z,102218.19
2023-02-20T14:03:19.012Z,102219.22
2023-02-20T14:05:45.860Z,102213.19
2023-02-20T14:08:19.197Z,102217.75
2023-02-20T14:10:47.969Z,102188.28
2023-02-20T14:13:23.026Z,102184.94
2023-02-20T14:15:56.934Z,102183.72
2023-02-20T14:18:30.869Z,102183.56
2023-02-20T14:21:17.114Z,102172.22
2023-02-20T14:23:45.803Z,102158.03
2023-02-20T14:26:21.492Z,102185.13
2023-02-20T14:28:51.055Z,102178.94
2023-02-20T14:31:26.615Z,102195.47
2023-02-20T14:34:06.929Z,102186.75
2023-02-20T14:36:58.899Z,102175.09
2023-02-20T14:39:40.333Z,102185.88
2023-02-20T14:42:15.150Z,102183.56
2023-02-20T14:44:41.666Z,102175.31
2023-02-20T14:47:16.513Z,102182.66
2023-02-20T14:49:44.231Z,102185.38
2023-02-20T14:52:10.706Z,102181.78
2023-02-20T14:54:39.455Z,102189.94
2023-02-20T14:57:06.967Z,102185.50
2023-02-20T14:59:36.005Z,102189.09
2023-02-20T15:02:24.203Z,102200.94
2023-02-20T15:05:05.242Z,102202.97
2023-02-20T15:07:32.048Z,102193.25
2023-02-20T15:10:02.769Z,102196.72
2023-02-20T15:12:34.407Z,102198.63
2023-02-20T15:15:11.594Z,102194.09
2023-02-20T15:17:40.645Z,102189.72
2023-02-20T15:20:37.745Z,102184.53
2023-02-20T15:23:16.335Z,102175.53
2023-02-20T15:25:44.340Z,102181.94
2023-02-20T15:28:25.954Z,102185.19
2023-02-20T15:31:02.680Z,102179.81
2023-02-20T15:33:31.348Z,102185.44
2023-02-20T15:35:58.956Z,102188.25
2023-02-20T15:38:32.821Z,102182.06
2023-02-20T15:41:02.128Z,102186.66
2023-02-20T15:43:37.863Z,102186.72
2023-02-20T15:46:14.527Z,102186.66
2023-02-20T15:48:42.126Z,102192.19
2023-02-20T15:51:10.349Z,102190.44
2023-02-20T15:53:38.397Z,102178.78
2023-02-20T15:56:05.750Z,102185.91
2023-02-20T15:58:36.290Z,102183.22
2023-02-20T16:01:03.735Z,102188.59
2023-02-20T16:03:33.940Z,102186.94
2023-02-20T16:06:05.155Z,102191.50
2023-02-20T16:08:32.065Z,102176.31
2023-02-20T16:10:58.587Z,102174.56
2023-02-20T16:13:35.018Z,102171.09
2023-02-20T16:16:18.392Z,102177.41
2023-02-20T16:18:51.614Z,102165.75
2023-02-20T16:21:20.533Z,102173.78
2023-02-20T16:23:49.729Z,102168.44
2023-02-20T16:26:21.666Z,102172.00
2023-02-20T16:28:54.908Z,102187.25
2023-02-20T16:31:21.520Z,102181.97
2023-02-20T16:33:49.382Z,102180.25
2023-02-20T16:36:24.267Z,102190.19
2023-02-20T16:38:51.506Z,102185.75
2023-02-20T16:41:17.966Z,102195.72
2023-02-20T16:43:44.441Z,102185.91
2023-02-20T16:46:10.994Z,102185.16
2023-02-20T16:48:37.495Z,102178.91
2023-02-20T16:51:06.263Z,102180.63
2023-02-20T16:53:32.860Z,102187.88
2023-02-20T16:55:59.352Z,102196.03
2023-02-20T16:58:25.920Z,102188.84
2023-02-20T17:00:57.689Z,102187.13
2023-02-20T17:03:24.711Z,102192.50
2023-02-20T17:05:58.192Z,102176.44
2023-02-20T17:08:28.287Z,102180.03
2023-02-20T17:10:54.817Z,102172.84
2023-02-20T17:13:21.864Z,102172.94
2023-02-20T17:15:48.545Z,102166.66
2023-02-20T17:18:15.717Z,102168.47
2023-02-20T17:20:42.204Z,102170.31
2023-02-20T17:23:08.632Z,102174.81
2023-02-20T17:25:35.120Z,102173.84
2023-02-20T17:28:02.335Z,102177.44
2023-02-20T17:30:28.879Z,102182.88
2023-02-20T17:32:55.425Z,102185.56
2023-02-20T17:35:21.928Z,102186.47
2023-02-20T17:37:49.463Z,102186.53
2023-02-20T17:40:16.651Z,102189.28
2023-02-20T17:42:43.257Z,102190.22
2023-02-20T17:45:10.084Z,102192.09
2023-02-20T17:47:37.342Z,102195.75
2023-02-20T17:50:04.585Z,102196.75
2023-02-20T17:52:31.167Z,102195.88
2023-02-20T17:54:57.807Z,102198.63
2023-02-20T17:57:24.610Z,102186.19
2023-02-20T17:59:51.167Z,102176.53
2023-02-20T18:02:18.920Z,102178.44
2023-02-20T18:04:45.780Z,102178.69
2023-02-20T18:07:14.277Z,102183.31
2023-02-20T18:09:40.961Z,102181.72
2023-02-20T18:12:07.768Z,102188.91
2023-02-20T18:14:34.253Z,102188.16
2023-02-20T18:17:00.677Z,102193.59
2023-02-20T18:19:27.364Z,102191.88
2023-02-20T18:21:53.909Z,102194.41
2023-02-20T18:24:25.895Z,102192.63
2023-02-20T18:26:53.815Z,102193.47
2023-02-20T18:29:21.267Z,102196.09
2023-02-20T18:31:49.094Z,102191.59
2023-02-20T18:34:15.717Z,102190.69
2023-02-20T18:36:42.147Z,102193.41
2023-02-20T18:39:09.859Z,102178.28
2023-02-20T18:41:37.594Z,102186.28
2023-02-20T18:44:04.983Z,102181.88
2023-02-20T18:46:36.120Z,102181.13
2023-02-20T18:49:03.621Z,102191.13
2023-02-20T18:51:33.486Z,102176.88
2023-02-20T18:54:00.421Z,102173.19
2023-02-20T18:56:27.406Z,102177.75
2023-02-20T18:58:54.492Z,102182.25
2023-02-20T19:01:21.518Z,102174.19
2023-02-20T19:03:53.175Z,102179.56
2023-02-20T19:06:34.420Z,102174.03
2023-02-20T19:09:01.583Z,102174.03
2023-02-20T19:11:28.681Z,102172.31
2023-02-20T19:13:55.160Z,102173.13
2023-02-20T19:16:22.755Z,102185.53
2023-02-20T19:18:50.850Z,102195.38
2023-02-20T19:21:18.775Z,102186.44
2023-02-20T19:23:46.274Z,102180.16
2023-02-20T19:26:13.702Z,102170.28
2023-02-20T19:28:42.098Z,102175.88
2023-02-20T19:31:10.375Z,102175.88
2023-02-20T19:33:37.163Z,102175.88
2023-02-20T19:36:04.754Z,102181.19
2023-02-20T19:38:31.292Z,102181.19
2023-02-20T19:40:57.744Z,102165.91
2023-02-20T19:43:26.378Z,102181.19
2023-02-20T19:45:52.842Z,102166.88
2023-02-20T19:48:19.322Z,102171.34
2023-02-20T19:50:45.776Z,102170.50
2023-02-20T19:53:12.458Z,102180.38
2023-02-20T19:55:38.917Z,102176.72
2023-02-20T19:58:05.513Z,102166.06
2023-02-20T20:00:32.151Z,102160.66
2023-02-20T20:02:58.993Z,102162.47
2023-02-20T20:05:26.153Z,102170.53
2023-02-20T20:07:52.579Z,102160.59
2023-02-20T20:10:23.119Z,102166.78
2023-02-20T20:12:49.846Z,102160.53
2023-02-20T20:15:19.365Z,102165.00
2023-02-20T20:17:46.848Z,102160.59
2023-02-20T20:20:15.470Z,102146.25
2023-02-20T20:22:42.303Z,102165.84
2023-02-20T20:25:10.750Z,102157.00
2023-02-20T20:27:37.628Z,102153.28
2023-02-20T20:30:09.197Z,102147.97
2023-02-20T20:32:35.828Z,102152.47
2023-02-20T20:35:02.669Z,102150.72
2023-02-20T20:37:29.191Z,102161.41
2023-02-20T20:39:59.273Z,102152.41
2023-02-20T20:42:28.047Z,102150.59
2023-02-20T20:44:57.058Z,102145.13
2023-02-20T20:47:24.163Z,102141.59
2023-02-20T20:49:51.116Z,102146.91
2023-02-20T20:52:18.786Z,102145.97
2023-02-20T20:54:53.428Z,102143.28
2023-02-20T20:57:22.172Z,102134.25
2023-02-20T20:59:49.378Z,102134.31
2023-02-20T21:02:17.628Z,102133.47
2023-02-20T21:04:45.812Z,102146.84
2023-02-20T21:07:12.644Z,102149.53
2023-02-20T21:09:39.178Z,102139.69
2023-02-20T21:12:05.925Z,102143.19
2023-02-20T21:14:35.303Z,102140.50
2023-02-20T21:17:04.554Z,102135.13
2023-02-20T21:19:31.904Z,102136.00
2023-02-20T21:21:58.518Z,102128.84
2023-02-20T21:24:24.940Z,102134.22
2023-02-20T21:26:51.536Z,102136.91
2023-02-20T21:29:18.570Z,102127.88
2023-02-20T21:31:45.753Z,102120.69
2023-02-20T21:34:12.909Z,102112.63
2023-02-20T21:36:39.497Z,102114.44
2023-02-20T21:39:05.958Z,102108.16
2023-02-20T21:41:51.004Z,102109.94
2023-02-20T21:44:29.082Z,102119.75
2023-02-20T21:47:01.110Z,102111.75
2023-02-20T21:49:29.222Z,102102.66
2023-02-20T21:51:56.460Z,102112.47
2023-02-20T21:54:27.050Z,102112.47
2023-02-20T21:56:53.996Z,102101.72
2023-02-20T21:59:20.943Z,102117.72
2023-02-20T22:01:47.769Z,102120.34
2023-02-20T22:04:14.632Z,102111.38
2023-02-20T22:06:41.972Z,102113.16
2023-02-20T22:09:27.513Z,102115.84
2023-02-20T22:12:12.442Z,102108.66
2023-02-20T22:14:57.229Z,102121.22
2023-02-20T22:17:42.190Z,102113.22
2023-02-20T22:20:30.530Z,102118.53
2023-02-20T22:23:16.085Z,102116.72
2023-02-20T22:26:01.443Z,102114.88
2023-02-20T22:28:46.453Z,102112.19
2023-02-20T22:31:31.277Z,102108.66
2023-02-20T22:34:16.360Z,102111.38
2023-02-20T22:37:01.328Z,102120.34
2023-02-20T22:39:46.681Z,102119.41
2023-02-20T22:42:35.249Z,102115.84
2023-02-20T22:45:21.352Z,102114.06
2023-02-20T22:48:06.264Z,102120.34
2023-02-20T22:50:51.069Z,102122.13
2023-02-20T22:53:35.944Z,102114.06
2023-02-20T22:56:20.866Z,102120.34
2023-02-20T22:59:06.038Z,102130.22
2023-02-20T23:01:51.011Z,102127.50
2023-02-20T23:04:36.196Z,102122.13
2023-02-20T23:07:21.563Z,102123.09
2023-02-20T23:10:06.534Z,102131.16
2023-02-20T23:12:51.331Z,102124.06
2023-02-20T23:15:36.062Z,102117.78
2023-02-20T23:18:21.024Z,102121.34
2023-02-20T23:21:05.860Z,102127.59
2023-02-20T23:23:51.031Z,102117.78
2023-02-20T23:26:35.845Z,102114.22
2023-02-20T23:29:20.629Z,102116.06
2023-02-20T23:32:05.594Z,102116.09
2023-02-20T23:34:50.771Z,102120.63
2023-02-20T23:37:36.114Z,102124.22
2023-02-20T23:40:27.292Z,102134.00
2023-02-20T23:43:21.404Z,102130.50
2023-02-20T23:46:06.503Z,102125.13
2023-02-20T23:48:51.815Z,102129.53
2023-02-20T23:51:36.960Z,102135.00
2023-02-20T23:54:22.250Z,102133.19
2023-02-20T23:57:07.302Z,102145.69
2023-02-20T23:59:52.425Z,102130.50
